Ilhabela, Brazil
Current Conditions -  °F | °C
As of 5:00 AM on Friday 31 Oct 2014 (Local Time) from SBSJ Reporting Station
Scattered Clouds Scattered Clouds  
Wind Chill: 72°   Ceiling: Unl
Heat Index: 72°   Visibility: 5mi
Dew Point: 63°   Wind: 0mph
Humidity: 73%   Direction: NA
Pressure: 29.88"   Gusts: NA
Location:  23.78°S, 45.34°W
Report Text: SBSJ 310700Z 00000KT 8000 SCT015 22/17 Q1012
Loading
Personal Weather Stations






























Interactive Weather Map
Tropical Storm Tracking
New forecast layout! Learn more

10-Day Weather Forecast

Advertisements
Track Severe Weather on mobile